Time;durP1;ratioP1;P1;durP2;ratioP2;P2;SDS_P1;SDS_P2;PMS_P1;PMS_P2;Temp;Humidity;BMP_temperature;BMP_pressure;BME280_temperature;BME280_humidity;BME280_pressure;Samples;Min_cycle;Max_cycle;Signal;HPM_P1;HPM_P2
2022/05/03 00:04:12;;;;;;;3.70;2.80;;;19.10;65.40;;;;;;10904701;32;20045;-71
2022/05/03 00:10:44;;;;;;;4.55;2.92;;;19.10;65.60;;;;;;10904596;32;20031;-70
2022/05/03 00:16:50;;;;;;;3.83;2.70;;;19.00;65.50;;;;;;10903451;32;20020;-70
2022/05/03 00:22:54;;;;;;;3.42;2.47;;;19.00;65.60;;;;;;10904303;32;20039;-71
2022/05/03 00:28:57;;;;;;;3.62;2.03;;;19.00;65.60;;;;;;10904100;32;20328;-70
2022/05/03 00:35:00;;;;;;;4.43;2.35;;;19.00;65.70;;;;;;10904057;32;20085;-71
2022/05/03 00:41:05;;;;;;;4.95;2.83;;;19.00;65.70;;;;;;10903986;32;20032;-71
2022/05/03 00:47:20;;;;;;;2.58;2.22;;;19.00;65.70;;;;;;10907046;32;20020;-71
2022/05/03 00:53:39;;;;;;;5.15;2.83;;;18.90;66.00;;;;;;10911208;32;20015;-71
2022/05/03 01:00:00;;;;;;;4.15;2.40;;;18.90;66.10;;;;;;10911107;32;20031;-71
2022/05/03 01:06:40;;;;;;;4.15;2.95;;;18.90;66.30;;;;;;10908679;32;20042;-71
2022/05/03 01:13:13;;;;;;;3.50;2.40;;;18.90;66.30;;;;;;10910588;32;20027;-71
2022/05/03 01:19:32;;;;;;;5.95;3.47;;;18.80;66.50;;;;;;10274119;33;17221316;-71
2022/05/03 01:26:11;;;;;;;3.90;3.00;;;18.80;66.60;;;;;;10795545;33;20020;-70
2022/05/03 01:32:19;;;;;;;6.35;2.80;;;18.80;66.90;;;;;;10795018;33;20032;-71
2022/05/03 01:38:54;;;;;;;5.57;3.67;;;18.80;67.00;;;;;;10795150;33;20416;-71
2022/05/03 01:45:07;;;;;;;4.07;2.83;;;18.80;66.80;;;;;;10870628;32;20023;-71
2022/05/03 01:51:30;;;;;;;2.87;2.30;;;18.70;66.90;;;;;;10858599;32;20039;-71
2022/05/03 01:58:09;;;;;;;3.92;2.85;;;18.70;67.00;;;;;;10871072;32;20035;-70
2022/05/03 02:04:37;;;;;;;4.05;2.40;;;18.70;67.10;;;;;;10871495;32;20023;-71
2022/05/03 02:11:23;;;;;;;4.85;2.95;;;18.60;67.30;;;;;;10871342;32;20070;-70
2022/05/03 02:17:46;;;;;;;3.62;2.50;;;18.50;67.40;;;;;;10870971;32;20023;-70
2022/05/03 02:24:29;;;;;;;4.40;3.15;;;18.50;67.30;;;;;;10870809;32;20405;-70
2022/05/03 02:30:33;;;;;;;3.80;3.25;;;18.40;67.20;;;;;;10869306;32;20042;-70
2022/05/03 02:36:43;;;;;;;3.92;2.60;;;18.30;67.20;;;;;;10863492;32;20036;-70
2022/05/03 02:42:46;;;;;;;5.95;3.20;;;18.30;67.40;;;;;;10833016;32;20050;-71
2022/05/03 02:49:03;;;;;;;3.70;2.85;;;18.30;67.60;;;;;;10832840;32;20308;-71
2022/05/03 02:55:47;;;;;;;4.62;2.72;;;18.30;67.90;;;;;;10832571;32;20036;-70
2022/05/03 03:02:15;;;;;;;4.50;2.58;;;18.30;68.10;;;;;;10719218;33;20408;-71
2022/05/03 03:08:19;;;;;;;4.57;3.05;;;18.20;68.10;;;;;;10718218;33;20028;-71
2022/05/03 03:14:38;;;;;;;3.45;2.42;;;18.20;68.30;;;;;;10717676;33;20381;-70
2022/05/03 03:20:45;;;;;;;4.80;3.17;;;18.10;69.00;;;;;;10718711;33;20203;-70
2022/05/03 03:26:49;;;;;;;5.55;3.12;;;18.00;69.00;;;;;;10718310;33;20044;-70
2022/05/03 03:33:00;;;;;;;4.22;3.17;;;17.90;68.90;;;;;;10755328;32;20032;-70
2022/05/03 03:39:02;;;;;;;5.20;3.42;;;17.80;68.90;;;;;;10831004;32;20021;-70
2022/05/03 03:45:07;;;;;;;6.72;3.72;;;17.70;69.00;;;;;;10830834;32;20027;-70
2022/05/03 03:51:13;;;;;;;5.62;3.53;;;17.50;69.10;;;;;;10830657;32;20290;-70
2022/05/03 03:57:16;;;;;;;3.95;2.87;;;17.50;69.30;;;;;;10830494;32;20028;-71
2022/05/03 04:03:19;;;;;;;4.40;3.08;;;17.40;69.20;;;;;;10830412;32;20016;-70
2022/05/03 04:09:21;;;;;;;5.87;3.35;;;17.30;69.30;;;;;;10830172;32;20032;-70
2022/05/03 04:15:25;;;;;;;3.78;2.92;;;17.30;69.50;;;;;;10829897;32;20028;-70
2022/05/03 04:21:27;;;;;;;6.60;4.05;;;17.30;69.50;;;;;;10829666;32;20051;-70
2022/05/03 04:27:29;;;;;;;5.18;4.15;;;17.30;69.40;;;;;;10829786;32;20047;-70
2022/05/03 04:33:38;;;;;;;5.30;2.95;;;17.40;69.80;;;;;;10830857;33;20389;-70
2022/05/03 04:39:42;;;;;;;5.07;3.83;;;17.40;69.70;;;;;;10829308;33;20380;-70
2022/05/03 04:45:51;;;;;;;4.82;3.85;;;17.40;69.60;;;;;;10829548;33;20062;-70
2022/05/03 04:51:54;;;;;;;5.87;4.07;;;17.40;69.50;;;;;;10829539;33;20016;-70
2022/05/03 04:57:56;;;;;;;4.50;3.10;;;17.30;69.40;;;;;;10829236;33;20032;-71
2022/05/03 05:03:58;;;;;;;5.25;3.45;;;17.30;69.70;;;;;;10829330;33;20020;-71
2022/05/03 05:16:21;;;;;;;6.00;2.90;;;17.30;69.80;;;;;;10815746;33;20075;-72
2022/05/03 05:22:23;;;;;;;4.10;3.05;;;17.30;69.80;;;;;;10828986;33;20050;-72
2022/05/03 05:28:26;;;;;;;5.75;3.75;;;17.40;69.80;;;;;;10828805;33;20409;-73
2022/05/03 05:34:28;;;;;;;5.97;4.22;;;17.50;69.70;;;;;;10819180;32;20051;-72
2022/05/03 05:40:35;;;;;;;3.67;2.70;;;17.70;69.50;;;;;;10872596;32;20039;-72
2022/05/03 05:46:37;;;;;;;6.28;2.83;;;17.70;69.30;;;;;;10872155;32;20019;-73
2022/05/03 05:59:01;;;;;;;4.68;3.62;;;17.80;69.20;;;;;;10871762;32;20028;-73
2022/05/03 06:05:04;;;;;;;5.75;3.17;;;17.80;68.80;;;;;;10871296;32;20438;-73
2022/05/03 06:11:06;;;;;;;5.45;3.17;;;17.80;68.70;;;;;;10866342;32;20422;-73
2022/05/03 06:17:29;;;;;;;4.72;2.42;;;18.00;68.60;;;;;;10868969;32;20066;-72
2022/05/03 06:23:32;;;;;;;6.85;3.92;;;18.20;68.30;;;;;;10870791;32;20028;-74
2022/05/03 06:29:34;;;;;;;8.15;4.32;;;18.40;68.00;;;;;;10870674;32;20050;-73
2022/05/03 06:35:37;;;;;;;4.35;2.90;;;18.50;67.90;;;;;;10866190;32;20023;-71
2022/05/03 06:42:06;;;;;;;3.83;2.60;;;18.60;67.70;;;;;;10870244;32;20058;-73
2022/05/03 06:48:12;;;;;;;5.60;3.50;;;18.70;67.30;;;;;;10865214;32;20059;-73
2022/05/03 06:54:15;;;;;;;4.22;2.95;;;18.80;67.20;;;;;;10865618;32;20039;-73
2022/05/03 07:00:17;;;;;;;3.80;2.80;;;18.90;67.00;;;;;;10865576;32;20027;-72
2022/05/03 07:06:21;;;;;;;2.47;2.12;;;19.10;66.60;;;;;;10868533;32;20059;-72
2022/05/03 07:12:23;;;;;;;3.78;2.70;;;19.20;66.20;;;;;;10867604;32;20419;-71
2022/05/03 07:24:46;;;;;;;3.08;2.25;;;19.50;65.60;;;;;;10868764;32;20538;-71
2022/05/03 07:30:48;;;;;;;5.85;3.00;;;19.60;65.00;;;;;;10868372;32;20032;-71
2022/05/03 07:36:50;;;;;;;5.40;3.83;;;19.80;64.30;;;;;;10867820;32;20024;-70
2022/05/03 07:42:52;;;;;;;5.28;2.30;;;19.80;63.40;;;;;;10867105;32;20027;-70
2022/05/03 07:48:56;;;;;;;3.33;2.28;;;19.90;62.60;;;;;;10867869;32;20061;-70
2022/05/03 07:54:58;;;;;;;4.62;3.22;;;20.00;61.60;;;;;;10867209;32;20328;-72
2022/05/03 08:01:01;;;;;;;3.00;2.47;;;20.10;61.00;;;;;;10867358;32;20027;-72
2022/05/03 08:07:03;;;;;;;4.50;2.87;;;20.20;60.80;;;;;;10867256;32;20412;-72
2022/05/03 08:13:05;;;;;;;4.03;2.70;;;20.30;60.70;;;;;;10861530;32;20031;-71
2022/05/03 08:19:07;;;;;;;6.15;3.25;;;20.40;60.30;;;;;;10862499;32;20019;-72
2022/05/03 08:25:10;;;;;;;3.60;2.37;;;20.40;59.80;;;;;;10866858;32;20020;-71
2022/05/03 08:31:12;;;;;;;4.10;3.00;;;20.50;59.90;;;;;;10866834;32;20032;-72
2022/05/03 08:43:35;;;;;;;12.00;2.75;;;20.70;58.10;;;;;;10866357;32;20040;-71
2022/05/03 08:49:46;;;;;;;5.32;3.87;;;20.80;58.10;;;;;;10866093;32;20304;-71
2022/05/03 08:55:50;;;;;;;6.55;2.65;;;21.00;57.60;;;;;;10866075;32;20039;-72
2022/05/03 09:01:54;;;;;;;2.92;2.55;;;21.00;56.70;;;;;;10866031;32;20027;-71
2022/05/03 09:08:04;;;;;;;3.17;2.05;;;21.10;57.70;;;;;;10869506;32;20228;-72
2022/05/03 09:14:10;;;;;;;5.45;2.92;;;21.30;57.10;;;;;;10887075;27;20027;-71
2022/05/03 09:27:16;;;;;;;4.55;2.10;;;21.50;55.70;;;;;;10948048;32;20338;-72
2022/05/03 09:33:51;;;;;;;4.68;2.92;;;21.70;55.40;;;;;;10947367;32;20027;-71
2022/05/03 09:39:53;;;;;;;4.80;2.55;;;21.80;55.10;;;;;;10831918;32;20061;-71
2022/05/03 09:46:07;;;;;;;10.93;2.50;;;21.90;54.30;;;;;;10818227;32;20050;-71
2022/05/03 09:52:28;;;;;;;4.87;2.35;;;22.00;54.10;;;;;;10830705;32;20019;-71
2022/05/03 09:58:31;;;;;;;10.00;3.50;;;22.20;53.70;;;;;;10831432;32;20102;-71
2022/05/03 10:04:33;;;;;;;4.12;2.30;;;22.30;53.80;;;;;;10827357;32;20054;-71
2022/05/03 10:10:35;;;;;;;3.10;1.60;;;22.50;53.40;;;;;;10830819;32;20051;-71
2022/05/03 10:22:59;;;;;;;4.65;2.75;;;22.70;52.20;;;;;;10946567;32;20019;-71
2022/05/03 10:29:00;;;;;;;3.37;2.05;;;22.80;52.00;;;;;;10946312;32;20065;-72
2022/05/03 10:35:06;;;;;;;11.70;2.33;;;23.00;51.20;;;;;;10945678;32;20027;-71
2022/05/03 10:41:09;;;;;;;5.45;1.83;;;23.30;50.40;;;;;;10945256;32;20022;-71
2022/05/03 10:48:02;;;;;;;3.45;2.30;;;23.40;48.80;;;;;;10945393;32;20102;-71
2022/05/03 10:54:06;;;;;;;9.02;2.47;;;23.60;49.00;;;;;;10945135;32;20022;-71
2022/05/03 11:00:11;;;;;;;4.68;2.05;;;23.80;48.80;;;;;;10944590;32;20011;-70
2022/05/03 11:06:23;;;;;;;7.22;2.15;;;24.00;47.40;;;;;;10944168;32;20030;-70
2022/05/03 11:12:48;;;;;;;3.80;2.03;;;24.20;46.80;;;;;;10930441;32;20015;-70
2022/05/03 11:18:52;;;;;;;2.62;1.60;;;24.60;46.40;;;;;;10943774;32;20057;-70
2022/05/03 11:24:56;;;;;;;3.58;2.22;;;24.80;45.90;;;;;;10943549;32;20015;-70
2022/05/03 11:31:00;;;;;;;4.10;2.05;;;25.00;45.00;;;;;;10942516;32;20077;-70
2022/05/03 11:37:03;;;;;;;2.42;1.52;;;25.30;44.00;;;;;;10943119;32;20026;-70
2022/05/03 11:43:09;;;;;;;2.67;1.87;;;25.40;44.20;;;;;;10942904;32;20293;-70
2022/05/03 11:49:13;;;;;;;6.53;2.35;;;25.60;43.70;;;;;;10942578;32;20394;-70
2022/05/03 11:55:58;;;;;;;5.37;2.28;;;25.60;43.60;;;;;;10940638;32;20061;-70
2022/05/03 12:02:19;;;;;;;3.22;1.67;;;25.80;43.90;;;;;;10941737;32;20041;-70
2022/05/03 12:08:23;;;;;;;3.90;2.60;;;26.00;43.90;;;;;;10941807;32;20085;-72
2022/05/03 12:14:36;;;;;;;5.62;2.25;;;26.00;43.10;;;;;;10936761;32;20053;-70
2022/05/03 12:21:06;;;;;;;3.25;1.83;;;25.80;43.00;;;;;;10941316;32;20347;-69
2022/05/03 12:27:12;;;;;;;4.05;1.70;;;25.90;42.50;;;;;;10752832;33;20397;-70
2022/05/03 12:33:15;;;;;;;6.18;2.10;;;25.80;42.20;;;;;;10751930;33;20056;-70
2022/05/03 12:39:25;;;;;;;7.05;1.95;;;25.70;42.00;;;;;;10752984;33;20044;-70
2022/05/03 12:45:30;;;;;;;7.97;2.58;;;25.70;41.60;;;;;;10759944;33;20020;-70
2022/05/03 12:51:32;;;;;;;3.85;1.65;;;25.60;40.80;;;;;;10756499;33;20082;-70
2022/05/03 13:03:56;;;;;;;2.53;1.65;;;25.60;40.10;;;;;;10908038;32;20011;-70
2022/05/03 13:09:58;;;;;;;4.32;2.15;;;25.50;39.40;;;;;;10948322;32;20023;-71
2022/05/03 13:16:00;;;;;;;4.97;2.37;;;25.60;39.40;;;;;;10948338;32;20053;-70
2022/05/03 13:22:03;;;;;;;4.10;1.73;;;25.50;39.60;;;;;;10947745;32;20045;-72
2022/05/03 13:28:06;;;;;;;5.65;1.90;;;25.50;40.40;;;;;;10943712;32;20069;-70
2022/05/03 13:34:09;;;;;;;2.72;1.87;;;25.50;40.70;;;;;;10947816;32;20351;-71
2022/05/03 13:40:30;;;;;;;1.40;1.25;;;25.60;40.30;;;;;;10947608;32;20386;-70
2022/05/03 13:46:32;;;;;;;6.57;1.92;;;25.60;39.80;;;;;;10947462;32;20073;-70
2022/05/03 13:52:36;;;;;;;7.82;1.92;;;25.70;39.30;;;;;;10946467;32;20014;-70
2022/05/03 13:58:39;;;;;;;7.85;2.78;;;25.70;39.00;;;;;;10922741;32;20066;-71
2022/05/03 14:04:42;;;;;;;5.22;1.23;;;25.70;38.60;;;;;;10908313;32;20366;-70
2022/05/03 14:11:08;;;;;;;4.20;1.70;;;25.70;38.70;;;;;;10909097;32;20065;-70
2022/05/03 14:17:12;;;;;;;1.73;1.35;;;25.80;37.90;;;;;;10895154;32;20019;-70
2022/05/03 14:23:15;;;;;;;3.55;1.70;;;25.80;38.20;;;;;;10908061;32;20023;-69
2022/05/03 14:29:18;;;;;;;1.77;1.12;;;25.90;38.10;;;;;;10903983;32;20019;-70
2022/05/03 14:35:20;;;;;;;5.70;1.62;;;25.90;38.10;;;;;;10903913;32;20049;-69
2022/05/03 14:41:22;;;;;;;2.15;1.40;;;25.90;38.00;;;;;;10907550;32;20047;-70
2022/05/03 14:47:24;;;;;;;3.97;1.73;;;25.90;37.50;;;;;;10907820;32;20054;-69
2022/05/03 14:53:27;;;;;;;1.45;1.02;;;25.80;37.90;;;;;;10907090;32;20057;-70
2022/05/03 15:05:50;;;;;;;2.22;1.50;;;26.10;37.80;;;;;;10906348;32;20049;-69
2022/05/03 15:11:53;;;;;;;2.78;1.50;;;26.20;37.50;;;;;;10905254;32;20067;-69
2022/05/03 15:18:16;;;;;;;2.33;1.42;;;26.30;37.10;;;;;;10913465;32;20049;-69
2022/05/03 15:24:40;;;;;;;1.85;1.33;;;26.20;36.30;;;;;;10939745;32;20058;-69
2022/05/03 15:30:50;;;;;;;3.58;1.77;;;26.30;36.80;;;;;;10926381;32;20059;-69
2022/05/03 15:37:14;;;;;;;1.65;1.05;;;26.60;36.20;;;;;;10905855;32;20035;-69
2022/05/03 15:43:16;;;;;;;7.57;1.98;;;26.80;36.50;;;;;;10902132;32;20019;-70
2022/05/03 15:49:18;;;;;;;3.00;1.12;;;26.80;35.70;;;;;;10905465;32;20023;-69
2022/05/03 15:55:20;;;;;;;1.67;1.08;;;26.70;35.90;;;;;;10905195;32;20019;-69
2022/05/03 16:01:22;;;;;;;2.42;1.30;;;26.70;36.40;;;;;;10904696;32;20059;-69
2022/05/03 16:07:24;;;;;;;2.67;1.40;;;26.80;36.10;;;;;;10904758;32;20288;-69
2022/05/03 16:13:26;;;;;;;2.30;1.33;;;26.60;35.70;;;;;;10904595;32;20031;-69
2022/05/03 16:19:32;;;;;;;1.87;1.10;;;26.50;35.50;;;;;;10932268;32;20391;-69
2022/05/03 16:25:43;;;;;;;1.40;1.12;;;26.70;35.40;;;;;;10936867;32;20347;-69
2022/05/03 16:31:46;;;;;;;1.73;1.08;;;26.60;34.90;;;;;;10941915;32;20038;-70
2022/05/03 16:44:09;;;;;;;2.70;1.35;;;26.70;35.70;;;;;;10941593;32;20418;-70
2022/05/03 16:50:13;;;;;;;1.83;1.05;;;26.80;35.70;;;;;;10941515;32;20434;-69
2022/05/03 16:56:30;;;;;;;2.20;1.23;;;26.70;36.20;;;;;;10941321;32;20042;-70
2022/05/03 17:02:32;;;;;;;3.58;1.98;;;26.60;36.60;;;;;;10940965;32;20031;-70
2022/05/03 17:08:34;;;;;;;2.58;1.65;;;26.30;37.20;;;;;;10939996;32;20023;-69
2022/05/03 17:14:37;;;;;;;5.22;1.60;;;26.30;37.40;;;;;;10944797;27;20019;-70
2022/05/03 17:20:39;;;;;;;2.65;1.65;;;26.70;36.50;;;;;;10927129;32;20034;-70
2022/05/03 17:27:04;;;;;;;3.17;1.77;;;26.90;36.50;;;;;;10940214;32;20019;-70
2022/05/03 17:33:06;;;;;;;5.00;1.62;;;26.50;37.10;;;;;;10947648;32;20023;-69
2022/05/03 17:39:09;;;;;;;4.62;1.62;;;25.90;38.20;;;;;;10947514;32;20039;-69
2022/05/03 17:45:26;;;;;;;3.45;1.98;;;25.50;39.30;;;;;;10947389;32;20050;-70
2022/05/03 17:53:52;;;;;;;3.10;1.77;;;25.30;39.70;;;;;;10944945;32;20414;-70
2022/05/03 17:57:50;;;;;;;2.87;1.73;;;25.30;39.90;;;;;;10908775;32;20036;-69
2022/05/03 18:03:52;;;;;;;3.95;1.87;;;24.90;40.40;;;;;;10908489;32;20023;-69
2022/05/03 18:09:55;;;;;;;2.17;1.45;;;24.70;40.90;;;;;;10937266;32;20211;-69
2022/05/03 18:15:57;;;;;;;3.72;2.00;;;24.30;41.30;;;;;;10945930;32;20429;-69
2022/05/03 18:22:00;;;;;;;3.08;1.42;;;24.20;41.70;;;;;;10945295;32;20348;-69
2022/05/03 18:28:03;;;;;;;2.03;1.30;;;23.90;42.10;;;;;;10945599;32;20076;-69
2022/05/03 18:34:06;;;;;;;5.90;2.62;;;23.80;42.40;;;;;;10944558;32;20030;-69
2022/05/03 18:40:09;;;;;;;2.17;1.27;;;23.60;42.80;;;;;;10944211;32;20027;-69
2022/05/03 18:46:11;;;;;;;3.67;1.85;;;23.40;43.10;;;;;;10944001;32;20316;-69
2022/05/03 18:52:14;;;;;;;1.90;1.40;;;23.30;43.30;;;;;;10940993;32;20023;-69
2022/05/03 18:58:19;;;;;;;3.72;2.28;;;23.20;43.70;;;;;;10908552;32;20387;-69
2022/05/03 19:04:22;;;;;;;3.45;2.25;;;23.10;44.20;;;;;;10905885;32;20054;-69
2022/05/03 19:10:25;;;;;;;3.05;1.75;;;23.00;44.60;;;;;;10917630;32;20434;-69
2022/05/03 19:16:28;;;;;;;1.65;1.23;;;22.90;44.90;;;;;;10905960;32;20023;-69
2022/05/03 19:22:30;;;;;;;1.95;1.50;;;22.80;45.00;;;;;;10901639;32;20050;-69
2022/05/03 19:34:58;;;;;;;2.70;1.77;;;22.60;45.80;;;;;;10905241;32;20039;-69
2022/05/03 19:41:13;;;;;;;2.85;1.55;;;22.50;46.10;;;;;;10904916;32;20061;-69
2022/05/03 19:47:20;;;;;;;3.30;2.17;;;22.40;46.40;;;;;;10905219;32;20050;-69
2022/05/03 19:53:22;;;;;;;6.78;3.60;;;22.30;46.50;;;;;;10904224;32;20058;-70
2022/05/03 19:59:24;;;;;;;5.00;3.35;;;22.20;47.10;;;;;;10922625;32;20035;-69
2022/05/03 20:06:02;;;;;;;7.85;3.35;;;22.10;47.40;;;;;;10917892;32;20093;-69
2022/05/03 20:12:05;;;;;;;5.53;3.20;;;22.00;47.80;;;;;;10940967;32;20340;-69
2022/05/03 20:18:08;;;;;;;4.97;2.92;;;21.90;48.00;;;;;;10941418;32;20061;-69
2022/05/03 20:24:37;;;;;;;4.28;2.67;;;21.80;48.40;;;;;;10937383;32;20027;-70
2022/05/03 20:31:03;;;;;;;4.35;2.37;;;21.80;48.60;;;;;;10941456;32;20058;-69
2022/05/03 20:37:05;;;;;;;3.20;2.22;;;21.80;49.10;;;;;;10938926;32;20196;-69
2022/05/03 20:43:08;;;;;;;4.90;2.00;;;21.70;49.30;;;;;;10905249;32;20070;-69
2022/05/03 20:49:12;;;;;;;6.00;2.87;;;21.60;49.50;;;;;;10903822;32;20362;-69
2022/05/03 20:55:15;;;;;;;2.58;1.87;;;21.60;50.00;;;;;;10903685;32;20053;-69
2022/05/03 21:01:35;;;;;;;4.28;1.87;;;21.50;50.30;;;;;;10903799;32;20034;-69
2022/05/03 21:07:37;;;;;;;3.62;2.00;;;21.50;50.70;;;;;;10911619;32;20379;-70
2022/05/03 21:13:40;;;;;;;2.15;1.52;;;21.30;51.00;;;;;;10910712;32;20054;-70
2022/05/03 21:19:44;;;;;;;5.00;2.47;;;21.30;51.20;;;;;;10910697;32;20019;-69
2022/05/03 21:25:49;;;;;;;4.05;1.87;;;21.30;51.60;;;;;;10910257;32;20392;-69
2022/05/03 21:32:01;;;;;;;4.18;2.60;;;21.30;52.00;;;;;;10910382;32;20387;-69
2022/05/03 21:38:06;;;;;;;2.37;2.00;;;21.10;52.00;;;;;;10896411;32;20031;-69
2022/05/03 21:44:11;;;;;;;4.05;1.95;;;21.00;52.60;;;;;;10896872;32;20019;-69
2022/05/03 21:50:13;;;;;;;4.47;2.45;;;20.90;52.70;;;;;;10909650;32;20480;-70
2022/05/03 21:56:17;;;;;;;2.90;1.90;;;20.80;53.20;;;;;;10909470;32;20031;-69
2022/05/03 22:02:20;;;;;;;2.97;1.98;;;20.80;53.40;;;;;;10909197;32;20035;-70
2022/05/03 22:08:22;;;;;;;12.48;2.10;;;20.80;54.10;;;;;;10908952;32;20053;-69
2022/05/03 22:14:25;;;;;;;5.85;3.10;;;20.80;55.00;;;;;;10907914;32;20403;-70
2022/05/03 22:20:33;;;;;;;3.83;2.28;;;20.60;56.90;;;;;;10908084;32;20027;-70
2022/05/03 22:26:36;;;;;;;4.05;2.53;;;20.40;57.70;;;;;;10908228;32;20054;-70
2022/05/03 22:32:38;;;;;;;3.03;1.98;;;20.30;57.70;;;;;;10908004;32;20403;-70
2022/05/03 22:38:45;;;;;;;4.25;2.45;;;20.30;57.80;;;;;;10907622;32;20430;-70
2022/05/03 22:44:48;;;;;;;5.15;2.50;;;20.30;58.50;;;;;;10907652;32;20027;-70
2022/05/03 22:50:50;;;;;;;4.37;3.10;;;20.20;58.30;;;;;;10907469;32;20406;-70
2022/05/03 22:56:52;;;;;;;4.75;2.70;;;20.10;59.20;;;;;;10907120;32;20050;-69
2022/05/03 23:02:54;;;;;;;3.58;2.45;;;20.00;59.90;;;;;;10907136;32;20389;-69
2022/05/03 23:08:56;;;;;;;4.72;3.10;;;19.80;60.10;;;;;;10906846;32;20035;-69
2022/05/03 23:14:58;;;;;;;4.62;2.85;;;19.80;60.00;;;;;;10906418;32;20035;-70
2022/05/03 23:21:01;;;;;;;4.20;3.03;;;19.70;60.20;;;;;;10906346;32;20027;-70
2022/05/03 23:27:04;;;;;;;4.00;2.40;;;19.70;60.30;;;;;;10892915;32;20059;-70
2022/05/03 23:33:06;;;;;;;3.72;2.72;;;19.70;60.30;;;;;;10906058;32;20347;-70
2022/05/03 23:39:08;;;;;;;5.22;3.75;;;19.60;60.60;;;;;;10905719;32;20399;-70
2022/05/03 23:51:32;;;;;;;4.50;3.25;;;19.40;60.70;;;;;;10905474;32;20363;-70
2022/05/03 23:57:35;;;;;;;4.45;2.92;;;19.30;61.10;;;;;;10905035;32;20429;-70
